Terminal Aerodrome Forecast
Issued by NWS

Home | Current Version | Previous Version | Text Only | Print | Product List | Glossary Off
Versions: 1 2 3 4 5 6 7 8 9 10 11 12 13 14 15 16 17 18 19 20 21 22 23 24 25 26 27 28 29 30 31 32 33 34

000
FTUS43 KLOT 031403 AAA
TAFDPA
TAF AMD
KDPA 031403Z 0314/0412 34010KT P6SM FEW060 FEW250
     FM031600 30011G18KT P6SM FEW025 FEW200
     FM040200 29009KT P6SM FEW200=

USA.gov is the U.S. government's official web portal to all federal, state and local government web resources and services.